sensor_id;sensor_type;location;lat;lon;timestamp;temperature;humidity
10175;DHT22;18221;38.704;0.152;2023-09-08T00:13:19;23.10;99.90
10175;DHT22;18221;38.704;0.152;2023-09-08T00:15:47;23.10;99.90
10175;DHT22;18221;38.704;0.152;2023-09-08T00:18:15;23.10;99.90
10175;DHT22;18221;38.704;0.152;2023-09-08T00:20:44;23.00;99.90
10175;DHT22;18221;38.704;0.152;2023-09-08T00:23:11;23.00;99.90
10175;DHT22;18221;38.704;0.152;2023-09-08T00:25:40;23.00;99.90
10175;DHT22;18221;38.704;0.152;2023-09-08T00:28:08;23.00;99.90
10175;DHT22;18221;38.704;0.152;2023-09-08T00:30:37;23.00;99.90
10175;DHT22;18221;38.704;0.152;2023-09-08T00:33:05;23.00;99.90
10175;DHT22;18221;38.704;0.152;2023-09-08T00:35:34;23.00;99.90
10175;DHT22;18221;38.704;0.152;2023-09-08T00:38:03;22.90;99.90
10175;DHT22;18221;38.704;0.152;2023-09-08T00:40:31;22.90;99.90
10175;DHT22;18221;38.704;0.152;2023-09-08T00:42:59;22.90;99.90
10175;DHT22;18221;38.704;0.152;2023-09-08T00:45:29;22.90;99.90
10175;DHT22;18221;38.704;0.152;2023-09-08T00:47:59;22.90;99.90
10175;DHT22;18221;38.704;0.152;2023-09-08T00:50:27;22.90;99.90
10175;DHT22;18221;38.704;0.152;2023-09-08T00:52:56;22.80;99.90
10175;DHT22;18221;38.704;0.152;2023-09-08T00:55:25;22.80;99.90
10175;DHT22;18221;38.704;0.152;2023-09-08T00:57:53;22.80;99.90
10175;DHT22;18221;38.704;0.152;2023-09-08T01:00:21;22.80;99.90
10175;DHT22;18221;38.704;0.152;2023-09-08T01:02:50;22.80;99.90
10175;DHT22;18221;38.704;0.152;2023-09-08T01:05:19;22.80;99.90
10175;DHT22;18221;38.704;0.152;2023-09-08T01:07:48;22.70;99.90
10175;DHT22;18221;38.704;0.152;2023-09-08T01:10:18;22.70;99.90
10175;DHT22;18221;38.704;0.152;2023-09-08T01:12:46;22.70;99.90
10175;DHT22;18221;38.704;0.152;2023-09-08T01:15:14;22.70;99.90
10175;DHT22;18221;38.704;0.152;2023-09-08T01:17:42;22.70;99.90
10175;DHT22;18221;38.704;0.152;2023-09-08T01:20:15;22.60;99.90
10175;DHT22;18221;38.704;0.152;2023-09-08T01:23:11;22.60;99.90
10175;DHT22;18221;38.704;0.152;2023-09-08T01:25:52;22.60;99.90
10175;DHT22;18221;38.704;0.152;2023-09-08T01:28:25;22.60;99.90
10175;DHT22;18221;38.704;0.152;2023-09-08T01:30:54;22.60;99.90
10175;DHT22;18221;38.704;0.152;2023-09-08T01:33:24;22.60;99.90
10175;DHT22;18221;38.704;0.152;2023-09-08T01:35:53;22.60;99.90
10175;DHT22;18221;38.704;0.152;2023-09-08T01:38:22;22.60;99.90
10175;DHT22;18221;38.704;0.152;2023-09-08T01:40:52;22.60;99.90
10175;DHT22;18221;38.704;0.152;2023-09-08T01:43:20;22.60;99.90
10175;DHT22;18221;38.704;0.152;2023-09-08T01:45:49;22.60;99.90
10175;DHT22;18221;38.704;0.152;2023-09-08T01:48:16;22.60;99.90
10175;DHT22;18221;38.704;0.152;2023-09-08T01:50:45;22.50;99.90
10175;DHT22;18221;38.704;0.152;2023-09-08T01:53:14;22.50;99.90
10175;DHT22;18221;38.704;0.152;2023-09-08T01:55:44;22.50;99.90
10175;DHT22;18221;38.704;0.152;2023-09-08T01:58:14;22.50;99.90
10175;DHT22;18221;38.704;0.152;2023-09-08T02:00:42;22.50;99.90
10175;DHT22;18221;38.704;0.152;2023-09-08T02:03:10;22.50;99.90
10175;DHT22;18221;38.704;0.152;2023-09-08T02:05:40;22.50;99.90
10175;DHT22;18221;38.704;0.152;2023-09-08T02:08:08;22.40;99.90
10175;DHT22;18221;38.704;0.152;2023-09-08T02:10:39;22.40;99.90
10175;DHT22;18221;38.704;0.152;2023-09-08T02:13:07;22.40;99.90
10175;DHT22;18221;38.704;0.152;2023-09-08T02:15:37;22.40;99.90
10175;DHT22;18221;38.704;0.152;2023-09-08T02:18:07;22.40;99.90
10175;DHT22;18221;38.704;0.152;2023-09-08T02:20:35;22.30;99.90
10175;DHT22;18221;38.704;0.152;2023-09-08T02:23:05;22.30;99.90
10175;DHT22;18221;38.704;0.152;2023-09-08T02:25:34;22.30;99.90
10175;DHT22;18221;38.704;0.152;2023-09-08T02:28:02;22.30;99.90
10175;DHT22;18221;38.704;0.152;2023-09-08T02:30:30;22.30;99.90
10175;DHT22;18221;38.704;0.152;2023-09-08T02:33:07;22.30;99.90
10175;DHT22;18221;38.704;0.152;2023-09-08T02:35:37;22.30;99.90
10175;DHT22;18221;38.704;0.152;2023-09-08T02:38:08;22.30;99.90
10175;DHT22;18221;38.704;0.152;2023-09-08T02:40:38;22.30;99.90
10175;DHT22;18221;38.704;0.152;2023-09-08T02:43:06;22.30;99.90
10175;DHT22;18221;38.704;0.152;2023-09-08T02:45:35;22.20;99.90
10175;DHT22;18221;38.704;0.152;2023-09-08T02:48:05;22.20;99.90
10175;DHT22;18221;38.704;0.152;2023-09-08T02:50:33;22.20;99.90
10175;DHT22;18221;38.704;0.152;2023-09-08T02:53:01;22.20;99.90
10175;DHT22;18221;38.704;0.152;2023-09-08T02:55:30;22.30;99.90
10175;DHT22;18221;38.704;0.152;2023-09-08T02:57:58;22.20;99.90
10175;DHT22;18221;38.704;0.152;2023-09-08T03:00:26;22.20;99.90
10175;DHT22;18221;38.704;0.152;2023-09-08T03:02:55;22.20;99.90
10175;DHT22;18221;38.704;0.152;2023-09-08T03:05:25;22.10;99.90
10175;DHT22;18221;38.704;0.152;2023-09-08T03:07:52;22.10;99.90
10175;DHT22;18221;38.704;0.152;2023-09-08T03:10:21;22.10;99.90
10175;DHT22;18221;38.704;0.152;2023-09-08T03:12:50;22.10;99.90
10175;DHT22;18221;38.704;0.152;2023-09-08T03:15:19;22.10;99.90
10175;DHT22;18221;38.704;0.152;2023-09-08T03:17:48;22.10;99.90
10175;DHT22;18221;38.704;0.152;2023-09-08T03:20:16;22.10;99.90
10175;DHT22;18221;38.704;0.152;2023-09-08T03:22:45;22.10;99.90
10175;DHT22;18221;38.704;0.152;2023-09-08T03:25:14;22.10;99.90
10175;DHT22;18221;38.704;0.152;2023-09-08T03:27:42;22.10;99.90
10175;DHT22;18221;38.704;0.152;2023-09-08T03:30:11;22.10;99.90
10175;DHT22;18221;38.704;0.152;2023-09-08T03:32:40;22.20;99.90
10175;DHT22;18221;38.704;0.152;2023-09-08T03:35:08;22.10;99.90
10175;DHT22;18221;38.704;0.152;2023-09-08T03:37:36;22.00;99.90
10175;DHT22;18221;38.704;0.152;2023-09-08T03:40:07;22.10;99.90
10175;DHT22;18221;38.704;0.152;2023-09-08T03:42:36;22.00;99.90
10175;DHT22;18221;38.704;0.152;2023-09-08T03:45:05;22.10;99.90
10175;DHT22;18221;38.704;0.152;2023-09-08T03:47:34;22.10;99.90
10175;DHT22;18221;38.704;0.152;2023-09-08T03:50:02;22.10;99.90
10175;DHT22;18221;38.704;0.152;2023-09-08T03:52:32;22.00;99.90
10175;DHT22;18221;38.704;0.152;2023-09-08T03:55:00;22.00;99.90
10175;DHT22;18221;38.704;0.152;2023-09-08T03:57:29;22.00;99.90
10175;DHT22;18221;38.704;0.152;2023-09-08T03:59:58;22.00;99.90
10175;DHT22;18221;38.704;0.152;2023-09-08T04:02:26;22.00;99.90
10175;DHT22;18221;38.704;0.152;2023-09-08T04:04:54;22.00;99.90
10175;DHT22;18221;38.704;0.152;2023-09-08T04:07:22;21.90;99.90
10175;DHT22;18221;38.704;0.152;2023-09-08T04:09:50;22.00;99.90
10175;DHT22;18221;38.704;0.152;2023-09-08T04:12:18;22.00;99.90
10175;DHT22;18221;38.704;0.152;2023-09-08T04:14:48;22.00;99.90
10175;DHT22;18221;38.704;0.152;2023-09-08T04:17:16;22.10;99.90
10175;DHT22;18221;38.704;0.152;2023-09-08T04:19:44;22.10;99.90
10175;DHT22;18221;38.704;0.152;2023-09-08T04:22:12;22.10;99.90
10175;DHT22;18221;38.704;0.152;2023-09-08T04:24:40;22.00;99.90
10175;DHT22;18221;38.704;0.152;2023-09-08T04:27:08;22.10;99.90
10175;DHT22;18221;38.704;0.152;2023-09-08T04:29:36;22.10;99.90
10175;DHT22;18221;38.704;0.152;2023-09-08T04:32:06;22.00;99.90
10175;DHT22;18221;38.704;0.152;2023-09-08T04:34:37;21.70;99.90
10175;DHT22;18221;38.704;0.152;2023-09-08T04:37:05;22.10;99.90
10175;DHT22;18221;38.704;0.152;2023-09-08T04:39:34;22.10;99.90
10175;DHT22;18221;38.704;0.152;2023-09-08T04:42:04;22.10;99.90
10175;DHT22;18221;38.704;0.152;2023-09-08T04:44:33;22.10;99.90
10175;DHT22;18221;38.704;0.152;2023-09-08T04:47:01;22.10;99.90
10175;DHT22;18221;38.704;0.152;2023-09-08T04:49:31;22.10;99.90
10175;DHT22;18221;38.704;0.152;2023-09-08T04:51:59;22.10;99.90
10175;DHT22;18221;38.704;0.152;2023-09-08T04:54:27;22.10;99.90
10175;DHT22;18221;38.704;0.152;2023-09-08T04:56:55;22.10;99.90
10175;DHT22;18221;38.704;0.152;2023-09-08T04:59:24;22.10;99.90
10175;DHT22;18221;38.704;0.152;2023-09-08T05:01:52;22.00;99.90
10175;DHT22;18221;38.704;0.152;2023-09-08T05:04:20;22.10;99.90
10175;DHT22;18221;38.704;0.152;2023-09-08T05:06:50;22.00;99.90
10175;DHT22;18221;38.704;0.152;2023-09-08T05:09:18;22.10;99.90
10175;DHT22;18221;38.704;0.152;2023-09-08T05:11:46;22.10;99.90
10175;DHT22;18221;38.704;0.152;2023-09-08T05:14:14;22.00;99.90
10175;DHT22;18221;38.704;0.152;2023-09-08T05:16:42;22.00;99.90
10175;DHT22;18221;38.704;0.152;2023-09-08T05:19:13;22.00;99.90
10175;DHT22;18221;38.704;0.152;2023-09-08T05:21:42;22.00;99.90
10175;DHT22;18221;38.704;0.152;2023-09-08T05:24:12;22.00;99.90
10175;DHT22;18221;38.704;0.152;2023-09-08T05:26:41;22.00;99.90
10175;DHT22;18221;38.704;0.152;2023-09-08T05:29:09;22.00;99.90
10175;DHT22;18221;38.704;0.152;2023-09-08T05:31:38;22.00;99.90
10175;DHT22;18221;38.704;0.152;2023-09-08T05:34:06;22.00;99.90
10175;DHT22;18221;38.704;0.152;2023-09-08T05:36:34;22.10;99.90
10175;DHT22;18221;38.704;0.152;2023-09-08T05:39:04;22.10;99.90
10175;DHT22;18221;38.704;0.152;2023-09-08T05:41:36;22.00;99.90
10175;DHT22;18221;38.704;0.152;2023-09-08T05:44:04;22.00;99.90
10175;DHT22;18221;38.704;0.152;2023-09-08T05:46:33;22.00;99.90
10175;DHT22;18221;38.704;0.152;2023-09-08T05:49:01;22.00;99.90
10175;DHT22;18221;38.704;0.152;2023-09-08T05:51:29;21.90;99.90
10175;DHT22;18221;38.704;0.152;2023-09-08T05:53:58;21.90;99.90
10175;DHT22;18221;38.704;0.152;2023-09-08T05:56:30;21.90;99.90
10175;DHT22;18221;38.704;0.152;2023-09-08T05:58:59;21.90;99.90
10175;DHT22;18221;38.704;0.152;2023-09-08T06:01:28;21.80;99.90
10175;DHT22;18221;38.704;0.152;2023-09-08T06:03:58;21.80;99.90
10175;DHT22;18221;38.704;0.152;2023-09-08T06:06:26;21.80;99.90
10175;DHT22;18221;38.704;0.152;2023-09-08T06:08:55;21.80;99.90
10175;DHT22;18221;38.704;0.152;2023-09-08T06:11:23;21.90;99.90
10175;DHT22;18221;38.704;0.152;2023-09-08T06:13:51;21.90;99.90
10175;DHT22;18221;38.704;0.152;2023-09-08T06:16:26;21.90;99.90
10175;DHT22;18221;38.704;0.152;2023-09-08T06:18:54;21.90;99.90
10175;DHT22;18221;38.704;0.152;2023-09-08T06:21:24;21.90;99.90
10175;DHT22;18221;38.704;0.152;2023-09-08T06:23:52;22.00;99.90
10175;DHT22;18221;38.704;0.152;2023-09-08T06:26:20;22.10;99.90
10175;DHT22;18221;38.704;0.152;2023-09-08T06:28:48;22.00;99.90
10175;DHT22;18221;38.704;0.152;2023-09-08T06:31:16;22.10;99.90
10175;DHT22;18221;38.704;0.152;2023-09-08T06:33:45;22.10;99.90
10175;DHT22;18221;38.704;0.152;2023-09-08T06:36:15;22.10;99.90
10175;DHT22;18221;38.704;0.152;2023-09-08T06:38:44;22.20;99.90
10175;DHT22;18221;38.704;0.152;2023-09-08T06:41:12;22.20;99.90
10175;DHT22;18221;38.704;0.152;2023-09-08T06:43:40;22.30;99.90
10175;DHT22;18221;38.704;0.152;2023-09-08T06:46:08;22.20;99.90
10175;DHT22;18221;38.704;0.152;2023-09-08T06:48:36;22.30;99.90
10175;DHT22;18221;38.704;0.152;2023-09-08T06:51:07;22.20;99.90
10175;DHT22;18221;38.704;0.152;2023-09-08T06:53:36;22.30;99.90
10175;DHT22;18221;38.704;0.152;2023-09-08T06:56:04;22.30;99.90
10175;DHT22;18221;38.704;0.152;2023-09-08T06:58:32;22.30;99.90
10175;DHT22;18221;38.704;0.152;2023-09-08T07:01:00;22.40;99.90
10175;DHT22;18221;38.704;0.152;2023-09-08T07:03:28;22.40;99.90
10175;DHT22;18221;38.704;0.152;2023-09-08T07:06:02;22.40;99.90
10175;DHT22;18221;38.704;0.152;2023-09-08T07:08:32;22.50;99.90
10175;DHT22;18221;38.704;0.152;2023-09-08T07:11:00;22.60;99.90
10175;DHT22;18221;38.704;0.152;2023-09-08T07:13:28;22.60;99.90
10175;DHT22;18221;38.704;0.152;2023-09-08T07:15:56;22.70;99.90
10175;DHT22;18221;38.704;0.152;2023-09-08T07:18:24;22.70;99.90
10175;DHT22;18221;38.704;0.152;2023-09-08T07:20:52;22.80;99.90
10175;DHT22;18221;38.704;0.152;2023-09-08T07:23:20;22.90;99.90
10175;DHT22;18221;38.704;0.152;2023-09-08T07:25:50;23.00;99.90
10175;DHT22;18221;38.704;0.152;2023-09-08T07:28:18;23.70;99.90
10175;DHT22;18221;38.704;0.152;2023-09-08T07:30:46;23.20;99.90
10175;DHT22;18221;38.704;0.152;2023-09-08T07:33:14;23.20;99.90
10175;DHT22;18221;38.704;0.152;2023-09-08T07:35:42;23.30;99.90
10175;DHT22;18221;38.704;0.152;2023-09-08T07:38:10;23.20;99.90
10175;DHT22;18221;38.704;0.152;2023-09-08T07:40:39;23.30;99.90
10175;DHT22;18221;38.704;0.152;2023-09-08T07:43:10;23.30;99.90
10175;DHT22;18221;38.704;0.152;2023-09-08T07:45:38;23.40;99.90
10175;DHT22;18221;38.704;0.152;2023-09-08T07:48:07;23.40;99.90
10175;DHT22;18221;38.704;0.152;2023-09-08T07:50:38;23.50;99.90
10175;DHT22;18221;38.704;0.152;2023-09-08T07:53:06;23.50;99.90
10175;DHT22;18221;38.704;0.152;2023-09-08T07:55:34;23.60;99.90
10175;DHT22;18221;38.704;0.152;2023-09-08T07:58:03;23.60;99.90
10175;DHT22;18221;38.704;0.152;2023-09-08T08:00:32;23.60;99.90
10175;DHT22;18221;38.704;0.152;2023-09-08T08:03:00;23.70;99.90
10175;DHT22;18221;38.704;0.152;2023-09-08T08:05:29;23.70;99.90
10175;DHT22;18221;38.704;0.152;2023-09-08T08:07:57;23.70;99.90
10175;DHT22;18221;38.704;0.152;2023-09-08T08:10:25;23.80;99.90
10175;DHT22;18221;38.704;0.152;2023-09-08T08:12:53;23.80;99.90
10175;DHT22;18221;38.704;0.152;2023-09-08T08:15:22;23.80;99.90
10175;DHT22;18221;38.704;0.152;2023-09-08T08:17:51;23.80;99.90
10175;DHT22;18221;38.704;0.152;2023-09-08T08:20:20;23.80;99.90
10175;DHT22;18221;38.704;0.152;2023-09-08T08:22:48;23.80;99.90
10175;DHT22;18221;38.704;0.152;2023-09-08T08:25:16;23.80;99.90
10175;DHT22;18221;38.704;0.152;2023-09-08T08:27:44;23.80;99.90
10175;DHT22;18221;38.704;0.152;2023-09-08T08:30:12;23.70;99.90
10175;DHT22;18221;38.704;0.152;2023-09-08T08:32:40;23.70;99.90
10175;DHT22;18221;38.704;0.152;2023-09-08T08:35:10;23.60;99.90
10175;DHT22;18221;38.704;0.152;2023-09-08T08:37:40;23.60;99.90
10175;DHT22;18221;38.704;0.152;2023-09-08T08:40:10;23.70;99.90
10175;DHT22;18221;38.704;0.152;2023-09-08T08:42:39;23.70;99.90
10175;DHT22;18221;38.704;0.152;2023-09-08T08:45:09;23.80;99.90
10175;DHT22;18221;38.704;0.152;2023-09-08T08:47:38;23.80;99.90
10175;DHT22;18221;38.704;0.152;2023-09-08T08:50:10;23.90;99.90
10175;DHT22;18221;38.704;0.152;2023-09-08T08:52:38;24.00;99.90
10175;DHT22;18221;38.704;0.152;2023-09-08T08:55:07;24.00;99.90
10175;DHT22;18221;38.704;0.152;2023-09-08T08:57:37;24.10;99.90
10175;DHT22;18221;38.704;0.152;2023-09-08T09:00:09;24.10;99.90
10175;DHT22;18221;38.704;0.152;2023-09-08T09:02:41;24.10;99.90
10175;DHT22;18221;38.704;0.152;2023-09-08T09:05:13;24.10;99.90
10175;DHT22;18221;38.704;0.152;2023-09-08T09:07:42;24.20;99.90
10175;DHT22;18221;38.704;0.152;2023-09-08T09:10:13;24.20;99.90
10175;DHT22;18221;38.704;0.152;2023-09-08T09:12:42;24.30;99.90
10175;DHT22;18221;38.704;0.152;2023-09-08T09:15:10;24.30;99.90
10175;DHT22;18221;38.704;0.152;2023-09-08T09:17:40;24.30;99.90
10175;DHT22;18221;38.704;0.152;2023-09-08T09:20:16;24.30;99.90
10175;DHT22;18221;38.704;0.152;2023-09-08T09:22:47;24.30;99.90
10175;DHT22;18221;38.704;0.152;2023-09-08T09:25:23;24.40;99.90
10175;DHT22;18221;38.704;0.152;2023-09-08T09:27:52;24.40;99.90
10175;DHT22;18221;38.704;0.152;2023-09-08T09:30:23;24.40;99.90
10175;DHT22;18221;38.704;0.152;2023-09-08T09:32:59;24.50;99.90
10175;DHT22;18221;38.704;0.152;2023-09-08T09:35:44;24.50;99.90
10175;DHT22;18221;38.704;0.152;2023-09-08T09:38:13;24.50;99.90
10175;DHT22;18221;38.704;0.152;2023-09-08T09:40:42;24.50;99.90
10175;DHT22;18221;38.704;0.152;2023-09-08T09:43:11;24.60;99.90
10175;DHT22;18221;38.704;0.152;2023-09-08T09:45:41;24.70;99.90
10175;DHT22;18221;38.704;0.152;2023-09-08T09:48:10;24.60;99.90
10175;DHT22;18221;38.704;0.152;2023-09-08T09:50:50;24.70;99.90
10175;DHT22;18221;38.704;0.152;2023-09-08T09:53:20;24.70;99.90
10175;DHT22;18221;38.704;0.152;2023-09-08T09:55:50;24.70;99.90
10175;DHT22;18221;38.704;0.152;2023-09-08T09:58:19;24.80;99.90
10175;DHT22;18221;38.704;0.152;2023-09-08T10:00:50;24.80;99.90
10175;DHT22;18221;38.704;0.152;2023-09-08T10:03:20;24.80;99.90
10175;DHT22;18221;38.704;0.152;2023-09-08T10:05:52;24.80;99.90
10175;DHT22;18221;38.704;0.152;2023-09-08T10:08:22;24.80;99.90
10175;DHT22;18221;38.704;0.152;2023-09-08T10:10:50;24.90;99.90
10175;DHT22;18221;38.704;0.152;2023-09-08T10:13:25;24.90;99.90
10175;DHT22;18221;38.704;0.152;2023-09-08T10:15:59;24.90;99.90
10175;DHT22;18221;38.704;0.152;2023-09-08T10:18:29;25.00;99.90
10175;DHT22;18221;38.704;0.152;2023-09-08T10:21:04;25.00;99.90
10175;DHT22;18221;38.704;0.152;2023-09-08T10:23:36;25.10;99.90
10175;DHT22;18221;38.704;0.152;2023-09-08T10:26:11;25.10;99.90
10175;DHT22;18221;38.704;0.152;2023-09-08T10:28:39;25.20;99.90
10175;DHT22;18221;38.704;0.152;2023-09-08T10:31:08;25.20;99.90
10175;DHT22;18221;38.704;0.152;2023-09-08T10:33:37;25.20;99.90
10175;DHT22;18221;38.704;0.152;2023-09-08T10:36:09;25.20;99.90
10175;DHT22;18221;38.704;0.152;2023-09-08T10:38:39;25.20;99.90
10175;DHT22;18221;38.704;0.152;2023-09-08T10:41:28;25.20;99.90
10175;DHT22;18221;38.704;0.152;2023-09-08T10:44:02;25.20;99.90
10175;DHT22;18221;38.704;0.152;2023-09-08T10:46:32;25.20;99.90
10175;DHT22;18221;38.704;0.152;2023-09-08T10:49:02;25.30;99.90
10175;DHT22;18221;38.704;0.152;2023-09-08T10:51:35;25.30;99.90
10175;DHT22;18221;38.704;0.152;2023-09-08T10:54:04;25.40;99.90
10175;DHT22;18221;38.704;0.152;2023-09-08T10:56:48;25.50;99.90
10175;DHT22;18221;38.704;0.152;2023-09-08T10:59:22;25.50;99.90
10175;DHT22;18221;38.704;0.152;2023-09-08T11:01:56;25.50;99.90
10175;DHT22;18221;38.704;0.152;2023-09-08T11:04:24;25.50;99.90
10175;DHT22;18221;38.704;0.152;2023-09-08T11:06:58;25.60;99.90
10175;DHT22;18221;38.704;0.152;2023-09-08T11:09:26;25.60;99.90
10175;DHT22;18221;38.704;0.152;2023-09-08T11:11:54;25.60;99.90
10175;DHT22;18221;38.704;0.152;2023-09-08T11:14:26;25.60;99.90
10175;DHT22;18221;38.704;0.152;2023-09-08T11:16:54;25.60;99.90
10175;DHT22;18221;38.704;0.152;2023-09-08T11:19:27;25.60;99.90
10175;DHT22;18221;38.704;0.152;2023-09-08T11:22:12;25.60;99.90
10175;DHT22;18221;38.704;0.152;2023-09-08T11:24:42;25.70;99.90
10175;DHT22;18221;38.704;0.152;2023-09-08T11:27:11;25.60;99.90
10175;DHT22;18221;38.704;0.152;2023-09-08T11:29:40;25.70;99.90
10175;DHT22;18221;38.704;0.152;2023-09-08T11:32:09;25.70;99.90
10175;DHT22;18221;38.704;0.152;2023-09-08T11:34:37;25.70;99.90
10175;DHT22;18221;38.704;0.152;2023-09-08T11:37:09;25.70;99.90
10175;DHT22;18221;38.704;0.152;2023-09-08T11:39:41;25.70;99.90
10175;DHT22;18221;38.704;0.152;2023-09-08T11:42:13;25.80;99.90
10175;DHT22;18221;38.704;0.152;2023-09-08T11:44:42;25.90;99.90
10175;DHT22;18221;38.704;0.152;2023-09-08T11:47:12;25.90;99.90
10175;DHT22;18221;38.704;0.152;2023-09-08T11:49:42;25.90;99.90
10175;DHT22;18221;38.704;0.152;2023-09-08T11:52:12;26.00;99.90
10175;DHT22;18221;38.704;0.152;2023-09-08T11:54:42;26.00;99.90
10175;DHT22;18221;38.704;0.152;2023-09-08T11:57:10;26.00;99.90
10175;DHT22;18221;38.704;0.152;2023-09-08T11:59:39;25.90;99.90
10175;DHT22;18221;38.704;0.152;2023-09-08T12:02:08;26.00;99.90
10175;DHT22;18221;38.704;0.152;2023-09-08T12:04:36;26.00;99.90
10175;DHT22;18221;38.704;0.152;2023-09-08T12:07:05;26.10;99.90
10175;DHT22;18221;38.704;0.152;2023-09-08T12:09:35;26.10;99.90
10175;DHT22;18221;38.704;0.152;2023-09-08T12:12:11;26.10;99.90
10175;DHT22;18221;38.704;0.152;2023-09-08T12:14:43;26.20;99.90
10175;DHT22;18221;38.704;0.152;2023-09-08T12:17:11;26.10;99.90
10175;DHT22;18221;38.704;0.152;2023-09-08T12:19:43;26.20;99.90
10175;DHT22;18221;38.704;0.152;2023-09-08T12:22:11;26.30;99.90
10175;DHT22;18221;38.704;0.152;2023-09-08T12:24:48;26.20;99.90
10175;DHT22;18221;38.704;0.152;2023-09-08T12:27:19;26.20;99.90
10175;DHT22;18221;38.704;0.152;2023-09-08T12:29:57;26.20;99.90
10175;DHT22;18221;38.704;0.152;2023-09-08T12:32:30;26.30;99.90
10175;DHT22;18221;38.704;0.152;2023-09-08T12:35:01;26.20;99.90
10175;DHT22;18221;38.704;0.152;2023-09-08T12:37:33;26.30;99.90
10175;DHT22;18221;38.704;0.152;2023-09-08T12:40:02;26.30;99.90
10175;DHT22;18221;38.704;0.152;2023-09-08T12:42:32;26.50;99.90
10175;DHT22;18221;38.704;0.152;2023-09-08T12:45:00;26.50;99.90
10175;DHT22;18221;38.704;0.152;2023-09-08T12:47:28;26.50;99.90
10175;DHT22;18221;38.704;0.152;2023-09-08T12:49:56;26.50;99.90
10175;DHT22;18221;38.704;0.152;2023-09-08T12:52:24;26.50;99.90
10175;DHT22;18221;38.704;0.152;2023-09-08T12:54:52;26.40;99.90
10175;DHT22;18221;38.704;0.152;2023-09-08T12:57:20;26.40;99.90
10175;DHT22;18221;38.704;0.152;2023-09-08T12:59:50;26.40;99.90
10175;DHT22;18221;38.704;0.152;2023-09-08T13:02:18;26.50;99.90
10175;DHT22;18221;38.704;0.152;2023-09-08T13:04:47;26.50;99.90
10175;DHT22;18221;38.704;0.152;2023-09-08T13:07:15;26.50;99.90
10175;DHT22;18221;38.704;0.152;2023-09-08T13:09:44;26.60;99.90
10175;DHT22;18221;38.704;0.152;2023-09-08T13:12:12;26.70;99.90
10175;DHT22;18221;38.704;0.152;2023-09-08T13:14:40;26.80;99.90
10175;DHT22;18221;38.704;0.152;2023-09-08T13:17:11;26.80;99.90
10175;DHT22;18221;38.704;0.152;2023-09-08T13:19:41;26.70;99.90
10175;DHT22;18221;38.704;0.152;2023-09-08T13:22:09;26.70;99.90
10175;DHT22;18221;38.704;0.152;2023-09-08T13:24:37;26.80;99.90
10175;DHT22;18221;38.704;0.152;2023-09-08T13:27:06;26.80;99.90
10175;DHT22;18221;38.704;0.152;2023-09-08T13:29:34;26.80;99.90
10175;DHT22;18221;38.704;0.152;2023-09-08T13:32:04;26.80;99.90
10175;DHT22;18221;38.704;0.152;2023-09-08T13:34:34;26.80;99.90
10175;DHT22;18221;38.704;0.152;2023-09-08T13:37:04;26.80;99.90
10175;DHT22;18221;38.704;0.152;2023-09-08T13:39:32;26.90;99.90
10175;DHT22;18221;38.704;0.152;2023-09-08T13:42:02;26.90;99.90
10175;DHT22;18221;38.704;0.152;2023-09-08T13:44:30;26.80;99.90
10175;DHT22;18221;38.704;0.152;2023-09-08T13:46:58;26.80;99.90
10175;DHT22;18221;38.704;0.152;2023-09-08T13:49:27;26.60;99.90
10175;DHT22;18221;38.704;0.152;2023-09-08T13:51:56;26.90;99.90
10175;DHT22;18221;38.704;0.152;2023-09-08T13:54:24;27.00;99.90
10175;DHT22;18221;38.704;0.152;2023-09-08T13:56:58;27.00;99.90
10175;DHT22;18221;38.704;0.152;2023-09-08T13:59:27;27.10;99.90
10175;DHT22;18221;38.704;0.152;2023-09-08T14:01:57;27.10;99.90
10175;DHT22;18221;38.704;0.152;2023-09-08T14:04:27;27.10;99.90
10175;DHT22;18221;38.704;0.152;2023-09-08T14:06:57;26.80;99.90
10175;DHT22;18221;38.704;0.152;2023-09-08T14:09:25;27.00;99.90
10175;DHT22;18221;38.704;0.152;2023-09-08T14:11:53;27.00;99.90
10175;DHT22;18221;38.704;0.152;2023-09-08T14:14:21;27.00;99.90
10175;DHT22;18221;38.704;0.152;2023-09-08T14:16:50;27.10;99.90
10175;DHT22;18221;38.704;0.152;2023-09-08T14:19:18;27.20;99.90
10175;DHT22;18221;38.704;0.152;2023-09-08T14:21:46;27.20;99.90
10175;DHT22;18221;38.704;0.152;2023-09-08T14:24:16;27.30;99.90
10175;DHT22;18221;38.704;0.152;2023-09-08T14:26:44;27.20;99.90
10175;DHT22;18221;38.704;0.152;2023-09-08T14:29:13;27.20;99.90
10175;DHT22;18221;38.704;0.152;2023-09-08T14:31:41;27.20;99.90
10175;DHT22;18221;38.704;0.152;2023-09-08T14:34:09;27.10;99.90
10175;DHT22;18221;38.704;0.152;2023-09-08T14:36:37;27.00;99.90
10175;DHT22;18221;38.704;0.152;2023-09-08T14:39:05;26.90;99.90
10175;DHT22;18221;38.704;0.152;2023-09-08T14:41:35;27.00;99.90
10175;DHT22;18221;38.704;0.152;2023-09-08T14:44:04;27.00;99.90
10175;DHT22;18221;38.704;0.152;2023-09-08T14:46:32;27.10;99.90
10175;DHT22;18221;38.704;0.152;2023-09-08T14:49:00;26.00;99.90
10175;DHT22;18221;38.704;0.152;2023-09-08T14:51:28;27.00;99.90
10175;DHT22;18221;38.704;0.152;2023-09-08T14:53:56;26.80;99.90
10175;DHT22;18221;38.704;0.152;2023-09-08T14:56:24;26.70;99.90
10175;DHT22;18221;38.704;0.152;2023-09-08T14:58:54;28.90;99.90
10175;DHT22;18221;38.704;0.152;2023-09-08T15:01:22;26.60;99.90
10175;DHT22;18221;38.704;0.152;2023-09-08T15:03:50;26.80;99.90
10175;DHT22;18221;38.704;0.152;2023-09-08T15:06:21;26.90;99.90
10175;DHT22;18221;38.704;0.152;2023-09-08T15:08:49;29.30;99.90
10175;DHT22;18221;38.704;0.152;2023-09-08T15:11:17;26.90;99.90
10175;DHT22;18221;38.704;0.152;2023-09-08T15:13:45;26.90;99.90
10175;DHT22;18221;38.704;0.152;2023-09-08T15:16:15;27.90;99.90
10175;DHT22;18221;38.704;0.152;2023-09-08T15:18:43;26.70;99.90
10175;DHT22;18221;38.704;0.152;2023-09-08T15:21:11;26.70;99.90
10175;DHT22;18221;38.704;0.152;2023-09-08T15:23:39;26.80;99.90
10175;DHT22;18221;38.704;0.152;2023-09-08T15:26:07;26.40;99.90
10175;DHT22;18221;38.704;0.152;2023-09-08T15:28:35;26.70;99.90
10175;DHT22;18221;38.704;0.152;2023-09-08T15:31:04;26.70;99.90
10175;DHT22;18221;38.704;0.152;2023-09-08T15:33:34;26.60;99.90
10175;DHT22;18221;38.704;0.152;2023-09-08T15:36:04;26.60;99.90
10175;DHT22;18221;38.704;0.152;2023-09-08T15:38:33;26.70;99.90
10175;DHT22;18221;38.704;0.152;2023-09-08T15:41:15;26.80;99.90
10175;DHT22;18221;38.704;0.152;2023-09-08T15:43:49;26.80;99.90
10175;DHT22;18221;38.704;0.152;2023-09-08T15:46:18;26.80;99.90
10175;DHT22;18221;38.704;0.152;2023-09-08T15:48:48;26.80;99.90
10175;DHT22;18221;38.704;0.152;2023-09-08T15:51:16;26.80;99.90
10175;DHT22;18221;38.704;0.152;2023-09-08T15:53:45;25.70;99.90
10175;DHT22;18221;38.704;0.152;2023-09-08T15:56:13;26.70;99.90